x

Mt Desert Rock, Me (mdrm1) Weather Station

7:00 - Tue 21st Apr 2015 All times are EDT. -4 hours from GMT.

  • Wind
    48mph, 54mph gusts
  • Aire Temp 42°f
  • Sea Pressure 1006.6mb
  • Mt Desert Rock, Me
  • Mt Desert Rock, Me

More Historic Weather Station data

Upgrade to MSW Pro to gain access to the past 30 days of data for over 8000 Wavebouys and Weather Stations around the globe.

Join Pro

Comparision Forecast

View Surf forecast
   
mar 04/21 7:00 48 54 mph 1006.6mb 42f
6:00 53 62 mph 1007.7mb 42f
5:00 56 66 mph 1008.2mb 42f
4:00 51 55 mph 1009.7mb 42f
3:00 45 54 mph 1011.6mb 42f
2:00 51 57 mph 1012.5mb 41f
1:00 46 53 mph 1014.9mb 41f
12:00 40 46 mph 1016.4mb 41f
lun 04/20 11:00 38 43 mph 1017.4mb 42f
10:00 36 40 mph 1019.5mb 43f
9:00 30 33 mph 1020.1mb 42f
8:00 31 34 mph 1019.6mb 42f
7:00 32 38 mph 1020mb 40f
6:00 30 32 mph 1020.9mb 40f
5:00 25 29 mph 1021.8mb 40f
4:00 22 24 mph 1023mb 40f
3:00 24 28 mph 1023.3mb 40f
2:00 20 21 mph 1024.5mb 40f
1:00 16 18 mph 1025.5mb 40f
12:00 18 21 mph 1025.8mb 40f
11:00 18 21 mph 1026.8mb 42f
10:00 16 17 mph 1026.4mb 41f
9:00 10 11 mph 1026.1mb 40f
8:00 6
mph
1026.8mb 40f
7:00 5 6 mph 1026.3mb 39f
6:00 1
mph
1026mb 39f
5:00 6 7 mph 1025.6mb 39f
4:00 6
mph
1025.1mb 39f
3:00 8 9 mph 1025.1mb 39f
2:00 10 11 mph 1025.1mb 39f
1:00 8
mph
1025.2mb 39f
12:00 9 10 mph 1025.5mb 39f
dom 04/19 11:00 9
mph
1025.4mb 40f
10:00 11 13 mph 1025.3mb 40f
9:00 10 11 mph 1025.2mb 40f
8:00 14 15 mph 1024.7mb 40f
7:00 14 15 mph 1023.5mb 40f
6:00 18 20 mph 1023.1mb 41f
5:00 17 18 mph 1023.3mb 42f
4:00 17 18 mph 1023.3mb 42f
3:00 11
mph
1024mb 42f
2:00 6 7 mph 1024.3mb 43f
1:00 6 7 mph 1024.5mb 42f
12:00 3
mph
1024.6mb 42f
11:00 6 7 mph 1024.7mb 38f
10:00 9
mph
1024.3mb 37f
9:00 11
mph
1024mb 37f
8:00 11 13 mph 1023.4mb 37f
7:00 11 13 mph 1022.9mb 37f
6:00 11 13 mph 1021.5mb 37f
5:00 13 15 mph 1020mb 38f
4:00 6
mph
1019.2mb 39f
3:00 6
mph
1018.3mb 39f
2:00 5
mph
1018mb 39f
1:00 10
mph
1017.6mb 39f
12:00 10 11 mph 1016.8mb 38f
sáb 04/18 11:00 9
mph
1016.8mb 38f
10:00 11 13 mph 1015.9mb 38f
9:00 16 17 mph 1015.9mb 38f
8:00 11 13 mph 1015.9mb 40f
7:00 9 10 mph 1014.8mb 41f
6:00 16
mph
1011.5mb 40f
5:00 14 15 mph 1012.3mb 42f
4:00 14 15 mph 1012.3mb 42f
3:00 11 13 mph 1013.4mb 43f
2:00 8 9 mph 1014.3mb 43f
1:00 7 8 mph 1014.6mb 41f
12:00 6
mph
1015.2mb 41f
11:00 10 11 mph 1015mb 40f
10:00 10 11 mph 1014.8mb 40f
9:00 16 17 mph 1014.4mb 40f
8:00 16 17 mph 1014.2mb 40f
7:00 11 13 mph 1014.1mb 41f
6:00 14
mph
1013.3mb 42f
5:00 16 17 mph 1012.4mb 44f
4:00 17 18 mph 1011.4mb 46f
3:00 18 20 mph 1010.8mb 46f
2:00 17 20 mph 1010.4mb 44f
1:00 15
mph
1010.2mb 44f
12:00 15 16 mph 1009.8mb 43f
vie 04/17 11:00 17 18 mph 1009.5mb 44f
10:00 16 17 mph 1009.7mb 44f
9:00 21 23 mph 1009.4mb 43f
8:00 20 21 mph 1008.8mb 45f
7:00 21 22 mph 1008.4mb 44f
6:00 20 22 mph 1008.7mb 42f
5:00 22 23 mph 1008.6mb 41f
4:00 21 22 mph 1009.1mb 42f
3:00 17 18 mph 1010.1mb 42f
2:00 21 23 mph 1011.1mb 42f
1:00 21 23 mph 1011.9mb 42f